Time;durP1;ratioP1;P1;durP2;ratioP2;P2;SDS_P1;SDS_P2;PMS_P1;PMS_P2;Temp;Humidity;BMP_temperature;BMP_pressure;BME280_temperature;BME280_humidity;BME280_pressure;Samples;Min_cycle;Max_cycle;Signal;HPM_P1;HPM_P2
2023/12/04 00:01:21;;;;;;;12.38;9.30;;;4.50;99.90;;;;;;5011431;28;20179;-73
2023/12/04 00:03:47;;;;;;;10.48;8.27;;;4.40;99.90;;;;;;5010644;28;20191;-71
2023/12/04 00:06:13;;;;;;;11.47;8.40;;;4.50;99.90;;;;;;5011098;28;20167;-71
2023/12/04 00:08:39;;;;;;;13.85;9.73;;;4.30;99.90;;;;;;5010896;28;20426;-72
2023/12/04 00:11:06;;;;;;;12.13;8.35;;;4.30;99.90;;;;;;5013847;28;20183;-72
2023/12/04 00:13:32;;;;;;;11.07;8.02;;;4.30;99.90;;;;;;5014576;28;20595;-72
2023/12/04 00:15:57;;;;;;;9.90;8.20;;;4.30;99.90;;;;;;5014470;28;20202;-72
2023/12/04 00:18:23;;;;;;;12.00;7.97;;;4.00;99.90;;;;;;5014192;28;20745;-72
2023/12/04 00:20:49;;;;;;;8.97;7.80;;;4.10;99.90;;;;;;5012496;28;20673;-72
2023/12/04 00:23:14;;;;;;;10.00;8.30;;;4.10;99.90;;;;;;5013341;28;20237;-72
2023/12/04 00:25:40;;;;;;;9.83;8.20;;;4.20;99.90;;;;;;5012707;28;20643;-70
2023/12/04 00:28:06;;;;;;;11.97;8.40;;;4.40;99.90;;;;;;5013704;28;20202;-72
2023/12/04 00:30:32;;;;;;;12.03;8.67;;;4.30;99.40;;;;;;5014334;28;20180;-69
2023/12/04 00:32:58;;;;;;;13.77;9.50;;;4.20;99.50;;;;;;5012741;28;21041;-72
2023/12/04 00:35:23;;;;;;;11.80;8.80;;;4.10;99.50;;;;;;5013672;28;20191;-72
2023/12/04 00:37:49;;;;;;;12.27;9.00;;;4.10;99.20;;;;;;5012749;28;20229;-72
2023/12/04 00:40:15;;;;;;;11.47;8.27;;;4.10;99.50;;;;;;4996572;28;20219;-71
2023/12/04 00:42:41;;;;;;;12.90;9.23;;;4.20;99.60;;;;;;4995612;28;20266;-71
2023/12/04 00:45:07;;;;;;;11.87;8.27;;;4.30;99.20;;;;;;5013460;28;20397;-71
2023/12/04 00:47:33;;;;;;;10.93;8.43;;;4.40;98.60;;;;;;5013963;28;20183;-72
2023/12/04 00:49:58;;;;;;;10.73;8.20;;;4.40;98.40;;;;;;5012218;28;20269;-72
2023/12/04 00:52:24;;;;;;;10.67;8.63;;;4.50;98.10;;;;;;5013215;28;20675;-72
2023/12/04 00:54:50;;;;;;;14.37;8.83;;;4.50;97.90;;;;;;5013566;28;20163;-72
2023/12/04 00:57:15;;;;;;;12.80;9.00;;;4.70;97.80;;;;;;5012930;28;20186;-71
2023/12/04 00:59:41;;;;;;;11.60;8.80;;;4.50;97.00;;;;;;5012712;28;20207;-71
2023/12/04 01:02:07;;;;;;;12.43;9.43;;;4.80;97.20;;;;;;5013971;28;20189;-63
2023/12/04 01:04:33;;;;;;;11.70;8.87;;;4.80;96.70;;;;;;5013513;28;20175;-72
2023/12/04 01:07:00;;;;;;;12.82;8.60;;;5.00;96.20;;;;;;5011907;28;20390;-72
2023/12/04 01:09:25;;;;;;;11.90;7.72;;;4.80;95.60;;;;;;5013215;28;20183;-72
2023/12/04 01:11:53;;;;;;;10.83;8.53;;;4.60;95.20;;;;;;5012745;28;20183;-72
2023/12/04 01:14:19;;;;;;;12.07;8.80;;;4.70;95.60;;;;;;5013243;28;20332;-72
2023/12/04 01:16:45;;;;;;;9.30;7.80;;;4.60;95.40;;;;;;5012040;28;20604;-71
2023/12/04 01:19:11;;;;;;;10.20;7.77;;;4.70;95.20;;;;;;5013680;28;20278;-72
2023/12/04 01:21:37;;;;;;;10.10;8.20;;;4.80;95.80;;;;;;5012688;28;20410;-63
2023/12/04 01:24:03;;;;;;;9.20;7.97;;;4.90;95.60;;;;;;5012218;28;20941;-72
2023/12/04 01:26:29;;;;;;;9.90;7.97;;;5.10;95.10;;;;;;5012132;28;20635;-70
2023/12/04 01:28:55;;;;;;;10.10;8.10;;;4.80;94.60;;;;;;5012430;28;20417;-72
2023/12/04 01:31:21;;;;;;;11.60;8.85;;;5.10;95.10;;;;;;4994684;28;20627;-71
2023/12/04 01:33:47;;;;;;;9.73;8.70;;;4.80;94.70;;;;;;5011602;28;20190;-72
2023/12/04 01:36:13;;;;;;;9.90;7.60;;;4.70;94.80;;;;;;5013872;28;20194;-71
2023/12/04 01:38:38;;;;;;;7.85;7.00;;;4.90;94.60;;;;;;5009434;28;20179;-64
2023/12/04 01:41:05;;;;;;;9.97;7.80;;;4.30;93.50;;;;;;5012202;28;20179;-71
2023/12/04 01:43:30;;;;;;;11.68;8.70;;;4.70;94.00;;;;;;5011465;28;20168;-71
2023/12/04 01:45:57;;;;;;;10.73;8.47;;;4.70;94.00;;;;;;5010212;28;20210;-72
2023/12/04 01:48:24;;;;;;;8.85;7.70;;;4.70;93.90;;;;;;4994434;28;20229;-71
2023/12/04 01:50:51;;;;;;;10.70;7.97;;;4.50;93.50;;;;;;5012181;28;20595;-72
2023/12/04 01:53:17;;;;;;;11.23;7.75;;;4.80;93.70;;;;;;4981828;28;20232;-72
2023/12/04 01:55:43;;;;;;;8.93;8.02;;;4.80;93.60;;;;;;5001824;28;20202;-71
2023/12/04 01:58:09;;;;;;;10.80;8.83;;;4.90;94.80;;;;;;5013102;28;20171;-71
2023/12/04 02:00:35;;;;;;;8.95;7.60;;;5.00;93.60;;;;;;5011796;28;20776;-72
2023/12/04 02:03:01;;;;;;;10.23;7.97;;;5.20;93.10;;;;;;5010833;28;20191;-70
2023/12/04 02:05:28;;;;;;;10.80;8.05;;;5.10;92.50;;;;;;5012023;28;20393;-72
2023/12/04 02:07:55;;;;;;;10.50;8.23;;;5.20;93.20;;;;;;5011539;28;20532;-72
2023/12/04 02:10:22;;;;;;;9.95;8.10;;;5.30;93.20;;;;;;5011989;28;20192;-72
2023/12/04 02:12:48;;;;;;;10.45;8.85;;;5.30;93.30;;;;;;5011199;28;20302;-72
2023/12/04 02:15:14;;;;;;;9.95;8.18;;;5.50;93.30;;;;;;5008772;28;20182;-72
2023/12/04 02:17:42;;;;;;;9.70;8.27;;;5.30;92.70;;;;;;5011421;28;20191;-64
2023/12/04 02:20:09;;;;;;;10.63;7.70;;;5.40;92.30;;;;;;5011134;28;20467;-72
2023/12/04 02:22:34;;;;;;;11.38;8.13;;;5.40;91.70;;;;;;5012428;28;20419;-72
2023/12/04 02:25:00;;;;;;;10.97;8.40;;;5.30;91.00;;;;;;5010441;28;20184;-72
2023/12/04 02:27:37;;;;;;;9.82;8.25;;;5.40;91.30;;;;;;4994182;28;20775;-72
2023/12/04 02:30:06;;;;;;;11.93;7.87;;;5.50;91.40;;;;;;4992489;28;20212;-72
2023/12/04 02:32:37;;;;;;;10.32;8.32;;;5.50;91.80;;;;;;5006846;28;20431;-72
2023/12/04 02:35:05;;;;;;;9.75;7.55;;;5.30;91.30;;;;;;5010689;28;20260;-71
2023/12/04 02:37:32;;;;;;;11.10;8.60;;;5.40;91.40;;;;;;5011553;28;20180;-71
2023/12/04 02:39:58;;;;;;;11.05;8.55;;;5.30;90.30;;;;;;5007202;28;20519;-71
2023/12/04 02:42:25;;;;;;;10.83;7.60;;;5.30;90.30;;;;;;5002869;28;20705;-72
2023/12/04 02:44:51;;;;;;;9.20;7.47;;;5.10;89.00;;;;;;5006938;28;20829;-71
2023/12/04 02:47:17;;;;;;;9.85;7.18;;;5.00;88.00;;;;;;5004013;28;20209;-71
2023/12/04 02:49:43;;;;;;;10.77;8.30;;;5.10;89.30;;;;;;5011554;28;20754;-64
2023/12/04 02:52:09;;;;;;;9.70;7.30;;;4.60;86.80;;;;;;5009763;28;20291;-72
2023/12/04 02:54:35;;;;;;;11.83;7.57;;;4.50;88.60;;;;;;5004697;28;20191;-72
2023/12/04 02:57:01;;;;;;;8.07;7.13;;;4.50;88.50;;;;;;5004352;28;20176;-72
2023/12/04 02:59:26;;;;;;;10.37;7.57;;;4.70;88.90;;;;;;5004612;28;20469;-72
2023/12/04 03:01:52;;;;;;;9.90;7.13;;;4.80;88.50;;;;;;5002082;28;20267;-72
2023/12/04 03:04:19;;;;;;;10.30;6.97;;;4.80;87.90;;;;;;5002440;28;20429;-63
2023/12/04 03:06:45;;;;;;;8.55;7.55;;;4.90;87.50;;;;;;5007843;28;20171;-71
2023/12/04 03:09:11;;;;;;;8.37;7.10;;;5.00;86.70;;;;;;5007086;28;20209;-73
2023/12/04 03:11:40;;;;;;;9.57;7.10;;;4.90;86.10;;;;;;5004029;28;20700;-72
2023/12/04 03:14:06;;;;;;;9.07;7.18;;;4.90;86.10;;;;;;5005366;28;20641;-72
2023/12/04 03:16:32;;;;;;;9.37;6.77;;;4.90;83.60;;;;;;5009414;28;20254;-72
2023/12/04 03:18:58;;;;;;;8.07;7.20;;;4.90;84.60;;;;;;4992293;28;20881;-72
2023/12/04 03:21:24;;;;;;;7.93;7.10;;;5.10;85.70;;;;;;5011186;28;20393;-71
2023/12/04 03:23:50;;;;;;;10.45;7.13;;;5.10;84.10;;;;;;5005532;28;20176;-72
2023/12/04 03:26:15;;;;;;;10.10;7.47;;;5.10;83.00;;;;;;5003513;28;20207;-71
2023/12/04 03:28:41;;;;;;;7.60;6.50;;;4.90;82.10;;;;;;5004860;28;20574;-63
2023/12/04 03:31:07;;;;;;;9.20;7.23;;;4.90;83.00;;;;;;4984842;28;20262;-72
2023/12/04 03:33:33;;;;;;;9.33;7.30;;;5.00;82.50;;;;;;4988880;28;20329;-72
2023/12/04 03:35:59;;;;;;;7.87;6.83;;;5.10;82.10;;;;;;5004877;28;20390;-71
2023/12/04 03:38:25;;;;;;;7.97;6.50;;;5.20;81.30;;;;;;5009237;28;20598;-72
2023/12/04 03:40:51;;;;;;;7.00;6.30;;;5.10;81.70;;;;;;5009936;28;20221;-72
2023/12/04 03:43:17;;;;;;;7.77;6.70;;;5.20;81.90;;;;;;5011067;28;20204;-72
2023/12/04 03:45:42;;;;;;;9.53;6.90;;;5.20;81.00;;;;;;5013139;28;20179;-63
2023/12/04 03:48:08;;;;;;;7.23;6.43;;;4.70;79.90;;;;;;5013222;28;20221;-73
2023/12/04 03:50:34;;;;;;;8.13;7.33;;;4.90;81.50;;;;;;4996251;28;20234;-72
2023/12/04 03:53:00;;;;;;;10.53;7.50;;;4.90;80.40;;;;;;5014174;28;20217;-72
2023/12/04 03:55:25;;;;;;;7.97;6.83;;;4.80;80.80;;;;;;5014330;28;20184;-72
2023/12/04 03:57:52;;;;;;;8.80;6.50;;;4.40;80.90;;;;;;5013165;28;20669;-72
2023/12/04 04:00:19;;;;;;;7.50;6.20;;;5.10;81.30;;;;;;5014129;28;20215;-72
2023/12/04 04:02:46;;;;;;;9.33;7.27;;;5.10;81.30;;;;;;5014498;28;20179;-64
2023/12/04 04:05:12;;;;;;;6.72;6.03;;;5.00;81.20;;;;;;5013705;28;20446;-72
2023/12/04 04:07:38;;;;;;;8.20;6.63;;;5.10;80.10;;;;;;5015041;28;20230;-68
2023/12/04 04:10:04;;;;;;;7.17;6.33;;;5.30;80.80;;;;;;4996193;28;20502;-71
2023/12/04 04:12:30;;;;;;;7.50;6.22;;;5.50;79.70;;;;;;5014045;28;20643;-73
2023/12/04 04:14:56;;;;;;;7.28;6.05;;;5.20;79.00;;;;;;5014644;28;20176;-72
2023/12/04 04:17:25;;;;;;;7.13;6.05;;;4.70;79.10;;;;;;5013960;28;20194;-73
2023/12/04 04:19:52;;;;;;;6.82;6.15;;;5.20;80.00;;;;;;5012569;28;20210;-72
2023/12/04 04:22:18;;;;;;;7.47;6.63;;;5.20;79.10;;;;;;5013799;28;20172;-72
2023/12/04 04:24:43;;;;;;;7.75;6.95;;;5.30;79.10;;;;;;5014030;28;20184;-65
2023/12/04 04:27:09;;;;;;;6.73;6.00;;;5.10;77.70;;;;;;5010980;28;20176;-72
2023/12/04 04:29:35;;;;;;;7.17;6.47;;;5.20;79.00;;;;;;5012612;28;20631;-70
2023/12/04 04:32:01;;;;;;;6.70;6.10;;;5.00;79.10;;;;;;5013074;28;20691;-72
2023/12/04 04:34:26;;;;;;;7.70;6.43;;;4.70;79.80;;;;;;5013221;28;20187;-72
2023/12/04 04:36:52;;;;;;;7.90;7.20;;;4.70;79.90;;;;;;5012874;28;20176;-71
2023/12/04 04:39:18;;;;;;;7.10;6.40;;;5.20;80.10;;;;;;5014137;28;20261;-72
2023/12/04 04:41:44;;;;;;;7.20;6.50;;;5.10;79.20;;;;;;5012989;28;20590;-71
2023/12/04 04:44:10;;;;;;;6.97;6.38;;;5.00;79.40;;;;;;5013170;28;20179;-73
2023/12/04 04:46:36;;;;;;;9.00;8.20;;;5.00;79.60;;;;;;5014145;28;20628;-71
2023/12/04 04:49:02;;;;;;;7.43;6.80;;;5.10;80.40;;;;;;5012374;28;20765;-71
2023/12/04 04:51:29;;;;;;;7.35;6.05;;;4.60;78.90;;;;;;5013037;28;20175;-72
2023/12/04 04:53:55;;;;;;;8.60;7.80;;;4.10;80.40;;;;;;5013021;28;20199;-71
2023/12/04 04:56:21;;;;;;;7.28;6.00;;;4.50;80.60;;;;;;5012615;28;20591;-73
2023/12/04 04:58:46;;;;;;;6.80;6.20;;;4.60;81.00;;;;;;5012264;28;20187;-66
2023/12/04 05:01:12;;;;;;;8.50;7.20;;;4.40;80.60;;;;;;5012840;28;20234;-72
2023/12/04 05:03:38;;;;;;;6.33;5.73;;;4.80;80.30;;;;;;4996563;28;20241;-72
2023/12/04 05:06:04;;;;;;;6.83;5.70;;;5.10;80.80;;;;;;5012449;28;20218;-72
2023/12/04 05:08:30;;;;;;;8.73;8.02;;;4.90;80.40;;;;;;5013295;28;20175;-73
2023/12/04 05:10:55;;;;;;;8.07;7.27;;;5.00;79.70;;;;;;5012643;28;20231;-73
2023/12/04 05:13:21;;;;;;;6.90;6.20;;;4.60;79.00;;;;;;5012860;28;20180;-73
2023/12/04 05:15:47;;;;;;;8.13;7.33;;;4.80;80.20;;;;;;5012326;28;20184;-64
2023/12/04 05:18:13;;;;;;;7.90;7.10;;;4.70;80.00;;;;;;5013240;28;20583;-73
2023/12/04 05:20:38;;;;;;;8.00;7.20;;;4.70;81.20;;;;;;4987934;28;20466;-72
2023/12/04 05:23:04;;;;;;;7.27;6.63;;;5.10;80.90;;;;;;5005209;28;20180;-72
2023/12/04 05:25:30;;;;;;;9.10;8.20;;;5.20;81.00;;;;;;5012207;28;20194;-70
2023/12/04 05:27:56;;;;;;;7.10;6.40;;;5.20;79.20;;;;;;5012224;28;20208;-72
2023/12/04 05:30:21;;;;;;;7.20;6.50;;;5.20;79.60;;;;;;5012529;28;20188;-72
2023/12/04 05:32:47;;;;;;;7.13;6.43;;;5.20;78.60;;;;;;5012606;28;20194;-64
2023/12/04 05:35:15;;;;;;;7.70;7.00;;;5.30;78.80;;;;;;5012917;28;20495;-71
2023/12/04 05:37:41;;;;;;;7.65;6.95;;;5.20;78.40;;;;;;5011984;28;20187;-72
2023/12/04 05:40:07;;;;;;;8.00;7.20;;;5.00;78.70;;;;;;5011871;28;20398;-71
2023/12/04 05:42:33;;;;;;;6.85;6.25;;;5.10;79.70;;;;;;5012891;28;20176;-73
2023/12/04 05:45:00;;;;;;;7.77;7.00;;;5.00;79.60;;;;;;4994353;28;20686;-71
2023/12/04 05:47:26;;;;;;;7.70;7.00;;;5.10;79.00;;;;;;5008677;28;20215;-72
2023/12/04 05:49:52;;;;;;;7.20;6.30;;;5.00;78.00;;;;;;5013034;28;20199;-71
2023/12/04 05:52:17;;;;;;;9.73;8.83;;;4.90;78.30;;;;;;5013437;28;20471;-72
2023/12/04 05:54:43;;;;;;;8.50;7.70;;;4.90;79.20;;;;;;5013369;28;20183;-72
2023/12/04 05:57:09;;;;;;;7.50;6.80;;;5.00;81.70;;;;;;4995366;28;20179;-72
2023/12/04 05:59:35;;;;;;;8.90;7.90;;;4.80;78.60;;;;;;4980105;28;20743;-72
2023/12/04 06:02:01;;;;;;;6.77;6.23;;;4.80;79.30;;;;;;5012528;28;20194;-72
2023/12/04 06:04:27;;;;;;;7.40;6.63;;;4.80;79.10;;;;;;5012866;28;20206;-72
2023/12/04 06:06:52;;;;;;;9.50;8.60;;;4.60;80.10;;;;;;5012449;28;20175;-72
2023/12/04 06:09:18;;;;;;;7.47;6.37;;;4.70;81.20;;;;;;4995425;28;20567;-72
2023/12/04 06:11:44;;;;;;;6.80;6.20;;;4.90;79.00;;;;;;4993388;28;20237;-72
2023/12/04 06:14:10;;;;;;;10.57;9.47;;;4.60;78.50;;;;;;5005460;28;20187;-72
2023/12/04 06:16:37;;;;;;;8.50;7.70;;;4.50;78.30;;;;;;5013025;28;20175;-72
2023/12/04 06:19:04;;;;;;;7.18;6.57;;;4.40;78.70;;;;;;5012313;28;20224;-71
2023/12/04 06:21:30;;;;;;;8.40;7.50;;;4.40;78.80;;;;;;5013408;28;20624;-72
2023/12/04 06:23:57;;;;;;;8.02;7.03;;;4.30;79.00;;;;;;4994270;28;20175;-71
2023/12/04 06:26:23;;;;;;;8.00;7.20;;;4.40;79.60;;;;;;5013108;28;20211;-70
2023/12/04 06:28:49;;;;;;;6.90;6.20;;;4.60;80.40;;;;;;5012391;28;20545;-62
2023/12/04 06:31:16;;;;;;;7.65;6.85;;;4.40;80.20;;;;;;4994324;28;20178;-67
2023/12/04 06:33:42;;;;;;;7.50;6.80;;;4.50;80.40;;;;;;5012973;28;20534;-68
2023/12/04 06:36:09;;;;;;;6.10;5.50;;;4.70;79.70;;;;;;4994591;28;20607;-67
2023/12/04 06:38:39;;;;;;;9.35;5.70;;;4.70;78.90;;;;;;5012040;28;20258;-68
2023/12/04 06:41:06;;;;;;;7.55;6.22;;;4.80;78.10;;;;;;4993089;28;20168;-68
2023/12/04 06:43:32;;;;;;;7.22;5.85;;;4.60;77.60;;;;;;4998716;28;20639;-67
2023/12/04 06:45:59;;;;;;;6.05;5.20;;;4.60;77.70;;;;;;5011137;28;20179;-67
2023/12/04 06:48:25;;;;;;;9.73;6.97;;;4.70;78.00;;;;;;5011665;28;20590;-68
2023/12/04 06:50:51;;;;;;;7.78;6.97;;;4.70;78.20;;;;;;5011294;28;20188;-64
2023/12/04 06:53:16;;;;;;;9.23;7.10;;;4.50;77.30;;;;;;5011836;28;20226;-69
2023/12/04 06:55:42;;;;;;;5.53;5.03;;;4.30;77.70;;;;;;5011218;28;20546;-68
2023/12/04 06:58:08;;;;;;;9.23;6.37;;;4.30;78.20;;;;;;5010770;28;20401;-68
2023/12/04 07:00:34;;;;;;;9.20;7.20;;;4.10;78.40;;;;;;5012019;28;20231;-69
2023/12/04 07:02:59;;;;;;;7.63;6.80;;;4.00;79.20;;;;;;5010107;28;20232;-66
2023/12/04 07:05:25;;;;;;;7.77;6.70;;;4.00;79.00;;;;;;5007334;28;20183;-67
2023/12/04 07:07:51;;;;;;;7.90;6.93;;;4.10;78.90;;;;;;5013240;28;20190;-60
2023/12/04 07:10:17;;;;;;;11.37;8.57;;;4.20;78.50;;;;;;5002984;28;20646;-68
2023/12/04 07:12:44;;;;;;;7.90;6.60;;;4.20;78.70;;;;;;5009615;28;20425;-69
2023/12/04 07:15:11;;;;;;;7.97;7.28;;;4.60;78.30;;;;;;5009840;28;20256;-67
2023/12/04 07:17:37;;;;;;;7.13;6.43;;;4.60;78.40;;;;;;5012022;28;20198;-68
2023/12/04 07:20:06;;;;;;;7.15;6.45;;;4.40;76.50;;;;;;5012147;28;20222;-67
2023/12/04 07:22:32;;;;;;;7.05;6.45;;;4.30;78.00;;;;;;4996444;28;20182;-69
2023/12/04 07:24:58;;;;;;;7.85;7.25;;;4.30;77.90;;;;;;5013787;28;20183;-66
2023/12/04 07:27:24;;;;;;;7.32;6.43;;;4.40;77.30;;;;;;5012765;28;20183;-69
2023/12/04 07:29:50;;;;;;;7.37;6.77;;;4.00;76.00;;;;;;5014416;28;20244;-69
2023/12/04 07:32:17;;;;;;;7.47;6.77;;;4.60;76.50;;;;;;5014355;28;20197;-70
2023/12/04 07:34:43;;;;;;;7.22;6.53;;;4.60;76.30;;;;;;5013607;28;20201;-65
2023/12/04 07:37:09;;;;;;;7.97;6.37;;;4.70;75.60;;;;;;5008123;28;20223;-64
2023/12/04 07:39:35;;;;;;;7.87;7.07;;;4.70;75.00;;;;;;5003988;28;20441;-68
2023/12/04 07:42:01;;;;;;;6.57;5.70;;;4.90;75.50;;;;;;5002182;28;20262;-71
2023/12/04 07:44:26;;;;;;;6.80;5.90;;;4.80;74.40;;;;;;5012550;28;20547;-67
2023/12/04 07:46:53;;;;;;;6.30;5.80;;;4.90;74.40;;;;;;5008351;28;20767;-67
2023/12/04 07:49:18;;;;;;;6.53;5.93;;;5.10;75.20;;;;;;5009271;28;20231;-65
2023/12/04 07:51:44;;;;;;;7.30;6.70;;;5.30;73.70;;;;;;5008407;28;20247;-67
2023/12/04 07:54:10;;;;;;;7.47;6.87;;;5.20;73.50;;;;;;5010609;28;20184;-70
2023/12/04 07:56:35;;;;;;;7.03;6.23;;;5.30;72.20;;;;;;5013666;28;20396;-66
2023/12/04 07:59:01;;;;;;;6.30;5.70;;;4.80;70.80;;;;;;5014642;28;20207;-67
2023/12/04 08:01:27;;;;;;;5.97;4.93;;;5.40;71.70;;;;;;5009917;28;20180;-67
2023/12/04 08:03:53;;;;;;;6.80;6.30;;;5.40;70.30;;;;;;5007379;28;20182;-67
2023/12/04 08:06:18;;;;;;;6.83;6.10;;;5.30;71.50;;;;;;5011175;28;20208;-67
2023/12/04 08:08:44;;;;;;;6.53;5.93;;;5.00;71.30;;;;;;5015421;28;20629;-75
2023/12/04 08:11:11;;;;;;;5.93;5.43;;;5.20;72.60;;;;;;5012194;28;20402;-66
2023/12/04 08:13:38;;;;;;;7.88;7.10;;;5.30;72.20;;;;;;5014309;28;20916;-67
2023/12/04 08:16:04;;;;;;;131.93;62.88;;;5.40;72.30;;;;;;5010016;28;20618;-66
2023/12/04 08:18:30;;;;;;;6.95;6.35;;;5.40;72.50;;;;;;5009546;28;20533;-67
2023/12/04 08:20:56;;;;;;;8.03;5.40;;;5.50;71.10;;;;;;5009349;28;20230;-67
2023/12/04 08:23:21;;;;;;;6.17;5.63;;;5.50;71.30;;;;;;5008837;28;20180;-67
2023/12/04 08:25:48;;;;;;;5.90;5.30;;;5.70;71.90;;;;;;5006831;28;20205;-65
2023/12/04 08:28:13;;;;;;;6.60;6.10;;;5.80;70.70;;;;;;5007249;28;20188;-66
2023/12/04 08:30:39;;;;;;;7.50;6.90;;;5.80;70.30;;;;;;5011499;28;20486;-65
2023/12/04 08:33:05;;;;;;;6.70;6.03;;;5.90;71.60;;;;;;4985260;28;20192;-65
2023/12/04 08:35:30;;;;;;;8.37;7.67;;;6.00;70.90;;;;;;5012679;28;20213;-70
2023/12/04 08:37:56;;;;;;;394.43;184.70;;;6.10;71.80;;;;;;5014130;28;20554;-64
2023/12/04 08:40:22;;;;;;;733.50;426.67;;;6.00;72.30;;;;;;5012958;28;20215;-67
2023/12/04 08:42:48;;;;;;;28.33;19.73;;;6.10;71.80;;;;;;5012192;28;20188;-66
2023/12/04 08:45:13;;;;;;;8.13;7.10;;;6.20;70.90;;;;;;4992244;28;20189;-66
2023/12/04 08:47:39;;;;;;;7.40;6.83;;;6.20;70.80;;;;;;5008097;28;20197;-66
2023/12/04 08:50:06;;;;;;;7.53;6.83;;;6.30;71.50;;;;;;5004334;28;20186;-68
2023/12/04 08:52:32;;;;;;;8.53;7.37;;;6.40;71.90;;;;;;5005336;28;20483;-72
2023/12/04 08:54:58;;;;;;;7.07;6.47;;;6.40;72.20;;;;;;5009153;28;20811;-64
2023/12/04 08:57:23;;;;;;;7.13;6.43;;;6.40;73.70;;;;;;5004886;28;20240;-65
2023/12/04 08:59:49;;;;;;;875.13;488.40;;;6.40;73.50;;;;;;5006783;28;20213;-65
2023/12/04 09:02:15;;;;;;;14.23;11.03;;;6.40;72.70;;;;;;5004908;28;20625;-66
2023/12/04 09:04:40;;;;;;;7.40;6.80;;;6.20;67.50;;;;;;5005498;28;20186;-66
2023/12/04 09:07:06;;;;;;;6.43;5.83;;;6.10;66.50;;;;;;4988965;28;20219;-65
2023/12/04 09:09:32;;;;;;;6.60;5.90;;;6.00;66.70;;;;;;4995029;28;20190;-66
2023/12/04 09:11:58;;;;;;;6.57;5.97;;;5.80;66.10;;;;;;5010344;28;20188;-64
2023/12/04 09:14:24;;;;;;;6.97;6.23;;;5.70;66.10;;;;;;5009547;28;20211;-65
2023/12/04 09:16:49;;;;;;;7.60;6.90;;;5.90;67.80;;;;;;5001355;28;20833;-64
2023/12/04 09:19:15;;;;;;;6.97;6.27;;;5.90;68.00;;;;;;5006447;28;20201;-66
2023/12/04 09:21:42;;;;;;;7.90;6.10;;;5.70;67.70;;;;;;5007282;28;20189;-66
2023/12/04 09:24:08;;;;;;;6.07;5.47;;;5.50;67.60;;;;;;5001163;28;20185;-66
2023/12/04 09:26:33;;;;;;;9.10;6.53;;;5.90;68.00;;;;;;4994615;28;20404;-66
2023/12/04 09:28:59;;;;;;;6.97;6.33;;;5.90;68.50;;;;;;5004019;28;20185;-64
2023/12/04 09:31:25;;;;;;;7.20;6.50;;;5.90;68.60;;;;;;4989474;28;20180;-67
2023/12/04 09:33:51;;;;;;;6.90;6.30;;;5.90;69.40;;;;;;5012964;28;20181;-65
2023/12/04 09:36:16;;;;;;;7.90;7.20;;;5.30;68.10;;;;;;5013186;28;20627;-61
2023/12/04 09:38:43;;;;;;;6.50;6.00;;;5.70;70.70;;;;;;5012737;28;20187;-61
2023/12/04 09:41:12;;;;;;;10.30;5.60;;;5.80;70.30;;;;;;5012378;28;20176;-62
2023/12/04 09:43:38;;;;;;;6.70;6.00;;;5.90;70.30;;;;;;5013268;28;20449;-61
2023/12/04 09:46:04;;;;;;;6.87;6.17;;;5.90;71.10;;;;;;5012477;28;20432;-61
2023/12/04 09:48:31;;;;;;;6.77;6.17;;;5.80;70.30;;;;;;4995766;28;20431;-61
2023/12/04 09:50:57;;;;;;;6.70;6.00;;;5.70;70.00;;;;;;5013950;28;20414;-61
2023/12/04 09:53:26;;;;;;;6.87;6.27;;;5.70;71.50;;;;;;5010627;28;20577;-61
2023/12/04 09:55:53;;;;;;;8.50;6.70;;;5.80;71.90;;;;;;5013332;28;20424;-60
2023/12/04 09:58:25;;;;;;;6.88;6.28;;;5.70;70.70;;;;;;5012134;28;20801;-61
2023/12/04 10:00:54;;;;;;;6.53;6.03;;;5.80;72.30;;;;;;4995000;28;20213;-62
2023/12/04 10:03:20;;;;;;;7.40;6.63;;;5.70;72.80;;;;;;5013042;28;20423;-60
2023/12/04 10:05:47;;;;;;;6.87;6.27;;;5.80;72.90;;;;;;5012614;28;20506;-61
2023/12/04 10:08:13;;;;;;;7.20;6.13;;;6.00;73.00;;;;;;5011817;28;20456;-60
2023/12/04 10:10:39;;;;;;;6.90;6.30;;;6.00;72.40;;;;;;5012734;28;20507;-61
2023/12/04 10:13:06;;;;;;;6.77;5.70;;;5.70;71.70;;;;;;5012908;28;20389;-61
2023/12/04 10:15:31;;;;;;;7.10;5.23;;;5.80;71.90;;;;;;5012682;28;20430;-61
2023/12/04 10:17:57;;;;;;;7.50;6.93;;;5.80;73.20;;;;;;5012607;28;20432;-61
2023/12/04 10:20:24;;;;;;;6.13;5.63;;;5.70;73.00;;;;;;5011900;28;20212;-61
2023/12/04 10:22:58;;;;;;;6.80;6.20;;;5.90;72.40;;;;;;5012076;28;20435;-61
2023/12/04 10:25:29;;;;;;;6.23;5.63;;;5.70;71.70;;;;;;4994055;28;20472;-61
2023/12/04 10:28:10;;;;;;;6.77;6.27;;;5.90;72.00;;;;;;5013324;28;20413;-61
2023/12/04 10:30:36;;;;;;;6.70;6.10;;;5.80;73.10;;;;;;5012416;28;21029;-61
2023/12/04 10:33:04;;;;;;;6.47;5.87;;;6.10;72.40;;;;;;5011526;28;20439;-64
2023/12/04 10:35:33;;;;;;;5.83;5.33;;;6.20;71.10;;;;;;5012129;28;20429;-61
2023/12/04 10:37:59;;;;;;;6.60;6.00;;;6.20;71.40;;;;;;5013094;28;20412;-61
2023/12/04 10:40:27;;;;;;;7.27;6.57;;;6.30;71.60;;;;;;5011514;28;20475;-61
2023/12/04 10:43:15;;;;;;;9.43;5.77;;;6.30;71.40;;;;;;5012441;28;20440;-61
2023/12/04 10:45:43;;;;;;;6.80;6.30;;;6.40;72.10;;;;;;5012163;28;20465;-61
2023/12/04 10:48:10;;;;;;;6.67;6.17;;;6.50;72.60;;;;;;5012646;28;20415;-61
2023/12/04 10:50:41;;;;;;;6.07;5.47;;;6.50;73.10;;;;;;5011990;28;20441;-62
2023/12/04 10:53:09;;;;;;;6.00;5.40;;;6.40;71.90;;;;;;5011203;28;20962;-62
2023/12/04 10:55:36;;;;;;;6.47;5.80;;;6.30;72.40;;;;;;4994150;28;20439;-61
2023/12/04 10:58:05;;;;;;;6.10;5.60;;;6.40;74.20;;;;;;5012909;28;20448;-62
2023/12/04 11:00:35;;;;;;;6.00;5.40;;;6.40;74.10;;;;;;5011838;28;20530;-62
2023/12/04 11:03:07;;;;;;;6.00;5.47;;;6.40;73.90;;;;;;5012088;28;20433;-61
2023/12/04 11:05:39;;;;;;;5.97;5.43;;;6.40;74.20;;;;;;5012863;28;20393;-62
2023/12/04 11:08:11;;;;;;;6.97;6.20;;;6.40;74.50;;;;;;4993839;28;20445;-62
2023/12/04 11:10:59;;;;;;;6.50;5.90;;;6.20;75.50;;;;;;4993970;28;20439;-61
2023/12/04 11:13:29;;;;;;;7.00;5.60;;;6.20;77.40;;;;;;5012156;28;20431;-61
2023/12/04 11:16:02;;;;;;;6.77;6.07;;;5.90;77.40;;;;;;5002800;28;20398;-62
2023/12/04 11:18:33;;;;;;;7.90;6.17;;;6.00;78.60;;;;;;5009120;28;20424;-64
2023/12/04 11:21:07;;;;;;;8.63;6.17;;;6.10;78.90;;;;;;4985400;28;20468;-64
2023/12/04 11:23:34;;;;;;;6.50;5.90;;;6.00;79.00;;;;;;4986415;28;20940;-64
2023/12/04 11:26:01;;;;;;;7.63;6.10;;;6.00;79.60;;;;;;4987153;28;20817;-64
2023/12/04 11:28:27;;;;;;;8.20;7.03;;;6.10;79.80;;;;;;5003195;28;20425;-64
2023/12/04 11:30:54;;;;;;;7.40;6.60;;;6.00;79.80;;;;;;4985484;28;20523;-64
2023/12/04 11:33:20;;;;;;;7.23;5.63;;;5.90;80.50;;;;;;5002979;28;20399;-64
2023/12/04 11:35:46;;;;;;;9.13;6.80;;;5.90;82.90;;;;;;5002858;28;20762;-63
2023/12/04 11:38:16;;;;;;;7.50;6.30;;;5.70;81.80;;;;;;5002341;28;20437;-64
2023/12/04 11:40:42;;;;;;;8.30;6.65;;;5.60;83.00;;;;;;4983423;28;20460;-64
2023/12/04 11:43:34;;;;;;;8.73;7.30;;;5.60;83.80;;;;;;5004567;28;20538;-64
2023/12/04 11:46:09;;;;;;;8.07;7.13;;;5.50;84.80;;;;;;5003909;28;20413;-64
2023/12/04 11:48:39;;;;;;;8.60;6.90;;;5.50;86.00;;;;;;5002850;28;20909;-64
2023/12/04 11:51:08;;;;;;;7.38;6.65;;;5.60;86.40;;;;;;5005520;28;20779;-61
2023/12/04 11:53:40;;;;;;;8.40;7.53;;;5.60;86.60;;;;;;5003002;28;20224;-61
2023/12/04 11:56:13;;;;;;;8.83;7.10;;;5.70;87.40;;;;;;5004751;28;20474;-62
2023/12/04 11:58:43;;;;;;;9.20;7.73;;;5.90;87.90;;;;;;5004160;28;20463;-62
2023/12/04 12:01:09;;;;;;;9.73;7.80;;;5.60;87.70;;;;;;5003068;28;20433;-62
2023/12/04 12:03:35;;;;;;;8.07;7.27;;;5.60;89.10;;;;;;5004300;28;20431;-62
2023/12/04 12:06:00;;;;;;;15.87;10.40;;;5.50;90.20;;;;;;5006632;28;20426;-62
2023/12/04 12:08:28;;;;;;;10.80;8.00;;;5.70;91.50;;;;;;5003537;28;20431;-63
2023/12/04 12:10:55;;;;;;;10.07;7.60;;;5.90;91.70;;;;;;5007756;28;20825;-61
2023/12/04 12:13:21;;;;;;;8.77;7.67;;;5.90;91.30;;;;;;5007580;28;20429;-61
2023/12/04 12:15:50;;;;;;;8.73;7.83;;;5.80;90.90;;;;;;5007860;28;20516;-62
2023/12/04 12:18:16;;;;;;;7.47;6.70;;;5.80;91.00;;;;;;5004199;28;20471;-61
2023/12/04 12:20:42;;;;;;;8.43;7.73;;;5.80;91.60;;;;;;5007586;28;20506;-61
2023/12/04 12:23:08;;;;;;;9.03;7.37;;;5.70;92.30;;;;;;5007173;28;20430;-71
2023/12/04 12:25:35;;;;;;;8.30;7.33;;;5.80;92.90;;;;;;5004267;28;20425;-61
2023/12/04 12:28:05;;;;;;;9.00;7.17;;;5.90;92.80;;;;;;5009188;28;20424;-61
2023/12/04 12:30:31;;;;;;;8.90;7.80;;;5.70;93.00;;;;;;5001410;28;20411;-61
2023/12/04 12:32:57;;;;;;;9.80;7.33;;;5.70;93.70;;;;;;5007735;28;20785;-60
2023/12/04 12:35:23;;;;;;;7.90;7.20;;;5.80;94.00;;;;;;5003203;28;20426;-60
2023/12/04 12:37:53;;;;;;;9.30;8.37;;;5.70;95.20;;;;;;5006236;28;20387;-61
2023/12/04 12:40:21;;;;;;;8.67;7.87;;;5.80;95.60;;;;;;5008754;28;20543;-60
2023/12/04 12:42:47;;;;;;;11.40;7.60;;;6.00;96.50;;;;;;5006048;28;20425;-61
2023/12/04 12:45:13;;;;;;;7.80;6.47;;;5.90;95.40;;;;;;5005059;28;21022;-60
2023/12/04 12:47:42;;;;;;;7.50;6.70;;;6.00;95.90;;;;;;5006531;28;20414;-61
2023/12/04 12:50:13;;;;;;;8.30;7.50;;;6.00;95.40;;;;;;5007531;28;20472;-61
2023/12/04 12:52:40;;;;;;;8.27;7.00;;;5.90;95.40;;;;;;5003477;28;20462;-62